KCMH

John Glenn Columbus International Airport

Columbus, Ohio, USA
METAR KCMH 191151Z 09003KT 10SM BKN250 M02/M05 A3007 RMK AO2 SLP189 T10221050 11011 21039 56006
Observed Flight Rules
Dec-19 @ 11:51 UTC (27 minutes ago) Visual Flight Rules
Wind Visibility Clouds
90° at 3 knots 10 miles
  • Broken at 25,000' AGL
Temperatures Readings
Current -2°C / 28°F
Dewpoint -5°C / 23°F
Humidity 80%
Altimeter 30.07" Hg
Pressure 1018.9 hPa
Elevation 247
METAR KCMH 191151Z 09003KT 10SM BKN250 M02/M05 A3007 RMK AO2 SLP189 T10221050 11011 21039 56006
Observed Flight Rules
Dec-19 @ 11:51 UTC
(27 minutes ago)
VFR
Wind Visibility
90° at 3 knots 10 miles
Clouds
  • Broken at 25,000' AGL
Temperature Dewpoint
-2°C / 28°F -5°C / 23°F
Humidity Altimeter Pressure
80% 30.07" Hg 1018.9 hPa